createdAt,value
2018-09-05T00:01:31.205Z,99.90
2018-09-05T00:03:58.991Z,99.90
2018-09-05T00:06:26.821Z,99.90
2018-09-05T00:08:54.636Z,99.90
2018-09-05T00:11:22.421Z,99.90
2018-09-05T00:13:50.293Z,99.90
2018-09-05T00:16:18.106Z,99.90
2018-09-05T00:18:45.934Z,99.90
2018-09-05T00:21:13.712Z,99.90
2018-09-05T00:23:41.413Z,99.90
2018-09-05T00:26:09.561Z,99.90
2018-09-05T00:28:37.329Z,99.90
2018-09-05T00:31:05.298Z,99.90
2018-09-05T00:33:33.086Z,99.90
2018-09-05T00:36:00.890Z,99.90
2018-09-05T00:38:28.651Z,99.90
2018-09-05T00:40:56.377Z,99.90
2018-09-05T00:43:24.129Z,99.90
2018-09-05T00:45:52.095Z,99.90
2018-09-05T00:48:19.859Z,99.90
2018-09-05T00:50:47.577Z,99.90
2018-09-05T00:53:15.330Z,99.90
2018-09-05T00:55:43.258Z,99.90
2018-09-05T00:58:11.027Z,99.90
2018-09-05T01:00:38.907Z,99.90
2018-09-05T01:03:06.840Z,99.90
2018-09-05T01:05:34.580Z,99.90
2018-09-05T01:08:08.766Z,99.90
2018-09-05T01:10:36.683Z,99.90
2018-09-05T01:13:04.518Z,99.90
2018-09-05T01:15:32.430Z,99.90
2018-09-05T01:18:00.173Z,99.90
2018-09-05T01:20:28.148Z,99.90
2018-09-05T01:22:56.091Z,99.90
2018-09-05T01:25:50.278Z,99.90
2018-09-05T01:28:18.086Z,99.90
2018-09-05T01:30:45.989Z,99.90
2018-09-05T01:33:13.875Z,99.90
2018-09-05T01:35:41.841Z,99.90
2018-09-05T01:38:09.721Z,99.90
2018-09-05T01:40:37.452Z,99.90
2018-09-05T01:43:05.250Z,99.90
2018-09-05T01:45:33.301Z,99.90
2018-09-05T01:48:01.062Z,99.90
2018-09-05T01:50:34.158Z,99.90
2018-09-05T01:53:02.097Z,99.90
2018-09-05T01:55:30.020Z,99.90
2018-09-05T01:57:58.056Z,99.90
2018-09-05T02:00:31.238Z,99.90
2018-09-05T02:02:59.275Z,99.90
2018-09-05T02:05:27.540Z,99.90
2018-09-05T02:07:55.516Z,99.90
2018-09-05T02:10:23.572Z,99.90
2018-09-05T02:12:51.514Z,99.90
2018-09-05T02:15:19.303Z,99.90
2018-09-05T02:17:47.219Z,99.90
2018-09-05T02:20:14.981Z,99.90
2018-09-05T02:22:42.794Z,99.90
2018-09-05T02:25:10.660Z,99.90
2018-09-05T02:27:38.407Z,99.90
2018-09-05T02:30:06.610Z,99.90
2018-09-05T02:32:34.363Z,99.90
2018-09-05T02:35:02.170Z,99.90
2018-09-05T02:37:31.286Z,99.90
2018-09-05T02:39:59.085Z,99.90
2018-09-05T02:42:27.218Z,99.90
2018-09-05T02:44:55.148Z,99.90
2018-09-05T02:47:22.975Z,99.90
2018-09-05T02:49:50.862Z,99.90
2018-09-05T02:52:18.790Z,99.90
2018-09-05T02:54:46.727Z,99.90
2018-09-05T02:57:14.514Z,99.90
2018-09-05T02:59:42.387Z,99.90
2018-09-05T03:02:10.114Z,99.90
2018-09-05T03:04:38.167Z,99.90
2018-09-05T03:07:06.355Z,99.90
2018-09-05T03:09:34.147Z,99.90
2018-09-05T03:12:02.010Z,99.90
2018-09-05T03:14:30.062Z,99.90
2018-09-05T03:16:57.805Z,99.90
2018-09-05T03:19:25.685Z,99.90
2018-09-05T03:21:53.619Z,99.90
2018-09-05T03:24:21.404Z,99.90
2018-09-05T03:26:49.436Z,99.90
2018-09-05T03:29:17.291Z,99.90
2018-09-05T03:31:45.098Z,99.90
2018-09-05T03:34:12.947Z,99.90
2018-09-05T03:36:40.812Z,99.90
2018-09-05T03:39:09.755Z,99.90
2018-09-05T03:41:37.507Z,99.90
2018-09-05T03:44:05.685Z,99.90
2018-09-05T03:46:33.564Z,99.90
2018-09-05T03:49:01.531Z,99.90
2018-09-05T03:51:29.349Z,99.90
2018-09-05T03:53:57.250Z,99.90
2018-09-05T03:56:25.210Z,99.90
2018-09-05T03:58:52.942Z,99.90
2018-09-05T04:01:20.863Z,99.90
2018-09-05T04:03:48.779Z,99.90
2018-09-05T04:06:21.073Z,99.90
2018-09-05T04:08:49.856Z,99.90
2018-09-05T04:11:17.646Z,99.90
2018-09-05T04:13:45.411Z,99.90
2018-09-05T04:16:13.457Z,99.90
2018-09-05T04:18:41.203Z,99.90
2018-09-05T04:21:09.083Z,99.90
2018-09-05T04:23:42.189Z,99.90
2018-09-05T04:26:10.147Z,99.90
2018-09-05T04:28:37.990Z,99.90
2018-09-05T04:31:06.253Z,99.90
2018-09-05T04:33:34.082Z,99.90
2018-09-05T04:36:01.874Z,99.90
2018-09-05T04:38:29.846Z,99.90
2018-09-05T04:40:57.651Z,99.90
2018-09-05T04:43:25.616Z,99.90
2018-09-05T04:45:53.410Z,99.90
2018-09-05T04:48:21.127Z,99.90
2018-09-05T04:50:49.324Z,99.90
2018-09-05T04:53:17.108Z,99.90
2018-09-05T04:55:44.911Z,99.90
2018-09-05T04:58:12.809Z,99.90
2018-09-05T05:00:40.698Z,99.90
2018-09-05T05:03:08.516Z,99.90
2018-09-05T05:05:36.298Z,99.90
2018-09-05T05:08:04.086Z,99.90
2018-09-05T05:10:31.969Z,99.90
2018-09-05T05:12:59.801Z,99.90
2018-09-05T05:15:27.791Z,99.90
2018-09-05T05:17:55.821Z,99.90
2018-09-05T05:20:23.632Z,99.90
2018-09-05T05:22:51.409Z,99.90
2018-09-05T05:25:19.342Z,99.90
2018-09-05T05:27:47.310Z,99.90
2018-09-05T05:30:15.110Z,99.90
2018-09-05T05:32:43.015Z,99.90
2018-09-05T05:35:10.793Z,99.90
2018-09-05T05:37:38.745Z,99.90
2018-09-05T05:40:07.497Z,99.90
2018-09-05T05:42:36.295Z,99.90
2018-09-05T05:45:04.528Z,99.90
2018-09-05T05:47:33.181Z,99.90
2018-09-05T05:50:01.863Z,99.90
2018-09-05T05:52:30.167Z,99.90
2018-09-05T05:54:58.167Z,99.90
2018-09-05T05:57:26.443Z,99.90
2018-09-05T05:59:54.692Z,99.90
2018-09-05T06:02:22.439Z,99.90
2018-09-05T06:04:50.274Z,99.90
2018-09-05T06:07:18.403Z,99.90
2018-09-05T06:09:46.147Z,99.90
2018-09-05T06:12:14.050Z,99.90
2018-09-05T06:14:41.958Z,99.90
2018-09-05T06:17:09.867Z,99.90
2018-09-05T06:19:37.688Z,99.90
2018-09-05T06:22:05.638Z,99.90
2018-09-05T06:24:34.012Z,99.90
2018-09-05T06:27:02.063Z,99.90
2018-09-05T06:29:30.014Z,99.90
2018-09-05T06:31:57.932Z,99.90
2018-09-05T06:34:25.661Z,99.90
2018-09-05T06:36:53.623Z,99.90
2018-09-05T06:39:21.527Z,99.90
2018-09-05T06:41:49.332Z,99.90
2018-09-05T06:44:17.172Z,99.90
2018-09-05T06:46:45.097Z,99.90
2018-09-05T06:49:12.881Z,99.90
2018-09-05T06:51:40.780Z,99.90
2018-09-05T06:54:08.534Z,99.90
2018-09-05T06:56:36.327Z,99.90
2018-09-05T06:59:04.182Z,99.90
2018-09-05T07:01:32.374Z,99.90
2018-09-05T07:04:00.311Z,99.90
2018-09-05T07:06:28.069Z,99.90
2018-09-05T07:08:56.024Z,99.90
2018-09-05T07:11:23.939Z,99.90
2018-09-05T07:13:51.749Z,99.90
2018-09-05T07:16:19.599Z,99.90
2018-09-05T07:18:47.453Z,99.90
2018-09-05T07:21:15.458Z,99.90
2018-09-05T07:23:43.264Z,99.90
2018-09-05T07:26:11.141Z,99.90
2018-09-05T07:28:39.048Z,99.90
2018-09-05T07:31:07.283Z,99.90
2018-09-05T07:33:35.377Z,99.90
2018-09-05T07:36:03.485Z,99.90
2018-09-05T07:38:31.616Z,99.90
2018-09-05T07:40:59.506Z,99.90
2018-09-05T07:43:27.271Z,99.90
2018-09-05T07:45:55.468Z,99.90
2018-09-05T07:48:23.228Z,99.90
2018-09-05T07:50:51.004Z,99.90
2018-09-05T07:53:18.812Z,99.90
2018-09-05T07:55:46.743Z,99.90
2018-09-05T07:58:14.912Z,99.90
2018-09-05T08:00:42.687Z,99.90
2018-09-05T08:03:10.482Z,99.90
2018-09-05T08:05:38.224Z,99.90
2018-09-05T08:08:06.029Z,99.90
2018-09-05T08:10:34.137Z,99.90
2018-09-05T08:13:02.151Z,99.90
2018-09-05T08:15:29.885Z,99.90
2018-09-05T08:17:57.850Z,99.90
2018-09-05T08:20:25.737Z,99.90
2018-09-05T08:22:53.664Z,99.90
2018-09-05T08:25:21.669Z,99.90
2018-09-05T08:27:49.412Z,99.90
2018-09-05T08:30:17.386Z,99.90
2018-09-05T08:32:45.364Z,99.90
2018-09-05T08:35:13.480Z,99.90
2018-09-05T08:37:41.390Z,99.90
2018-09-05T08:40:09.045Z,99.90
2018-09-05T08:42:37.469Z,99.90
2018-09-05T08:45:06.054Z,99.90
2018-09-05T08:47:33.768Z,99.90
2018-09-05T08:50:02.055Z,99.90
2018-09-05T08:52:30.222Z,99.90
2018-09-05T08:54:58.122Z,99.90
2018-09-05T08:57:26.200Z,99.90
2018-09-05T08:59:53.967Z,99.90
2018-09-05T09:02:21.750Z,99.90
2018-09-05T09:04:49.789Z,99.90
2018-09-05T09:07:17.711Z,99.90
2018-09-05T09:09:45.597Z,99.90
2018-09-05T09:12:13.412Z,99.90
2018-09-05T09:14:41.216Z,99.90
2018-09-05T09:17:10.048Z,99.90
2018-09-05T09:19:37.922Z,99.90
2018-09-05T09:22:05.696Z,99.90
2018-09-05T09:24:33.733Z,99.90
2018-09-05T09:27:01.626Z,99.90
2018-09-05T09:29:29.464Z,99.90
2018-09-05T09:31:57.643Z,99.90
2018-09-05T09:34:25.809Z,99.90
2018-09-05T09:36:53.738Z,99.90
2018-09-05T09:39:21.491Z,99.90
2018-09-05T09:41:49.282Z,99.90
2018-09-05T09:44:17.172Z,99.90
2018-09-05T09:46:44.971Z,99.90
2018-09-05T09:49:12.923Z,99.90
2018-09-05T09:51:40.702Z,99.90
2018-09-05T09:54:08.576Z,99.90
2018-09-05T09:56:36.677Z,99.90
2018-09-05T09:59:04.742Z,99.90
2018-09-05T10:01:38.106Z,99.90
2018-09-05T10:04:11.324Z,99.90
2018-09-05T10:07:44.171Z,99.90
2018-09-05T10:10:17.602Z,99.90
2018-09-05T10:12:51.420Z,99.90
2018-09-05T10:15:24.831Z,99.90
2018-09-05T10:17:58.059Z,99.90
2018-09-05T10:20:25.872Z,99.90
2018-09-05T10:22:53.653Z,99.90
2018-09-05T10:25:21.529Z,99.90
2018-09-05T10:27:49.369Z,99.90
2018-09-05T10:30:17.213Z,99.90
2018-09-05T10:32:45.136Z,99.90
2018-09-05T10:35:13.043Z,99.90
2018-09-05T10:37:40.860Z,99.90
2018-09-05T10:40:08.762Z,99.90
2018-09-05T10:42:36.642Z,99.90
2018-09-05T10:45:04.549Z,99.90
2018-09-05T10:47:32.549Z,99.90
2018-09-05T10:50:00.512Z,99.90
2018-09-05T10:52:28.383Z,99.90
2018-09-05T10:54:56.230Z,99.90
2018-09-05T10:57:24.011Z,99.90
2018-09-05T10:59:51.818Z,99.90
2018-09-05T11:02:19.759Z,99.90
2018-09-05T11:04:47.564Z,99.90
2018-09-05T11:07:15.358Z,99.90
2018-09-05T11:09:43.200Z,99.90
2018-09-05T11:12:10.963Z,99.90
2018-09-05T11:14:38.889Z,99.90
2018-09-05T11:17:06.632Z,99.90
2018-09-05T11:19:34.502Z,99.90
2018-09-05T11:22:02.538Z,99.90
2018-09-05T11:24:30.416Z,99.90
2018-09-05T11:26:58.189Z,99.90
2018-09-05T11:29:26.142Z,99.90
2018-09-05T11:31:54.008Z,99.90
2018-09-05T11:34:21.761Z,99.90
2018-09-05T11:36:50.410Z,99.90
2018-09-05T11:39:18.420Z,99.90
2018-09-05T11:41:46.243Z,99.90
2018-09-05T11:44:14.321Z,99.90
2018-09-05T11:46:42.125Z,99.90
2018-09-05T11:49:09.917Z,99.90
2018-09-05T11:51:37.890Z,99.90
2018-09-05T11:54:06.210Z,99.90
2018-09-05T11:56:33.991Z,99.90
2018-09-05T11:59:01.920Z,99.90
2018-09-05T12:01:29.964Z,99.90
2018-09-05T12:03:57.862Z,99.90
2018-09-05T12:06:25.752Z,99.90
2018-09-05T12:08:53.695Z,99.90
2018-09-05T12:11:21.509Z,99.90
2018-09-05T12:13:49.404Z,99.90
2018-09-05T12:16:17.391Z,99.90
2018-09-05T12:18:45.803Z,99.90
2018-09-05T12:21:13.672Z,99.90
2018-09-05T12:23:41.494Z,99.90
2018-09-05T12:26:09.264Z,99.90
2018-09-05T12:28:37.650Z,99.90
2018-09-05T12:31:05.536Z,99.90
2018-09-05T12:33:33.997Z,99.90
2018-09-05T12:36:02.006Z,99.90
2018-09-05T12:38:29.925Z,99.90
2018-09-05T12:40:57.862Z,99.90
2018-09-05T12:43:25.644Z,99.90
2018-09-05T12:45:53.535Z,99.90
2018-09-05T12:48:21.355Z,99.90
2018-09-05T12:50:49.243Z,99.90
2018-09-05T12:53:17.010Z,99.90
2018-09-05T12:55:44.813Z,99.00
2018-09-05T12:58:12.801Z,98.60
2018-09-05T13:00:40.684Z,99.10
2018-09-05T13:03:08.642Z,99.30
2018-09-05T13:05:36.501Z,99.10
2018-09-05T13:08:04.288Z,97.90
2018-09-05T13:10:32.225Z,97.80
2018-09-05T13:13:00.138Z,97.60
2018-09-05T13:15:28.037Z,96.80
2018-09-05T13:17:55.853Z,97.70
2018-09-05T13:20:23.663Z,97.10
2018-09-05T13:22:51.854Z,96.90
2018-09-05T13:25:19.676Z,97.40
2018-09-05T13:27:47.607Z,96.80
2018-09-05T13:30:15.506Z,96.60
2018-09-05T13:32:43.640Z,97.30
2018-09-05T13:35:11.811Z,97.10
2018-09-05T13:37:39.715Z,97.50
2018-09-05T13:40:07.658Z,97.00
2018-09-05T13:42:35.444Z,97.00
2018-09-05T13:45:03.311Z,96.60
2018-09-05T13:47:31.303Z,96.20
2018-09-05T13:49:59.270Z,96.30
2018-09-05T13:52:27.235Z,95.80
2018-09-05T13:54:55.066Z,96.20
2018-09-05T13:57:22.803Z,96.20
2018-09-05T13:59:50.641Z,95.70
2018-09-05T14:02:18.460Z,95.60
2018-09-05T14:04:46.377Z,95.00
2018-09-05T14:07:14.390Z,95.30
2018-09-05T14:09:42.352Z,96.40
2018-09-05T14:12:10.292Z,95.40
2018-09-05T14:14:38.115Z,95.30
2018-09-05T14:17:06.147Z,95.30
2018-09-05T14:19:33.952Z,95.00
2018-09-05T14:22:01.762Z,95.20
2018-09-05T14:24:29.687Z,94.90
2018-09-05T14:26:57.480Z,94.80
2018-09-05T14:29:25.494Z,95.20
2018-09-05T14:31:53.346Z,95.30
2018-09-05T14:34:21.174Z,94.80
2018-09-05T14:36:49.240Z,95.30
2018-09-05T14:39:17.081Z,94.30
2018-09-05T14:41:44.949Z,93.80
2018-09-05T14:44:12.864Z,94.00
2018-09-05T14:46:40.700Z,94.90
2018-09-05T14:49:08.566Z,94.10
2018-09-05T14:51:36.478Z,94.10
2018-09-05T14:54:04.424Z,93.70
2018-09-05T14:56:32.223Z,93.10
2018-09-05T14:59:00.240Z,93.40
2018-09-05T15:01:28.217Z,93.40
2018-09-05T15:03:56.472Z,94.70
2018-09-05T15:06:24.312Z,93.30
2018-09-05T15:08:52.323Z,93.20
2018-09-05T15:11:20.227Z,93.20
2018-09-05T15:13:48.348Z,92.70
2018-09-05T15:16:16.239Z,93.20
2018-09-05T15:18:44.172Z,93.00
2018-09-05T15:21:12.372Z,93.50
2018-09-05T15:23:40.143Z,92.00
2018-09-05T15:26:08.150Z,91.20
2018-09-05T15:28:36.000Z,91.80
2018-09-05T15:31:03.968Z,92.90
2018-09-05T15:33:31.854Z,92.20
2018-09-05T15:35:59.746Z,92.70
2018-09-05T15:38:27.743Z,92.80
2018-09-05T15:40:55.777Z,92.70
2018-09-05T15:43:24.247Z,93.10
2018-09-05T15:45:52.284Z,93.80
2018-09-05T15:48:20.102Z,93.70
2018-09-05T15:50:48.013Z,93.60
2018-09-05T15:53:15.849Z,93.50
2018-09-05T15:55:43.699Z,93.70
2018-09-05T15:58:11.548Z,94.30
2018-09-05T16:00:39.522Z,95.20
2018-09-05T16:03:07.541Z,95.10
2018-09-05T16:05:35.422Z,95.40
2018-09-05T16:08:03.511Z,95.20
2018-09-05T16:10:31.465Z,96.00
2018-09-05T16:12:59.563Z,95.90
2018-09-05T16:15:27.609Z,95.10
2018-09-05T16:17:55.419Z,96.00
2018-09-05T16:20:23.299Z,95.50
2018-09-05T16:22:51.343Z,95.20
2018-09-05T16:25:19.340Z,95.50
2018-09-05T16:27:47.199Z,95.60
2018-09-05T16:30:15.102Z,95.40
2018-09-05T16:32:43.112Z,95.40
2018-09-05T16:35:10.941Z,95.60
2018-09-05T16:37:38.711Z,95.70
2018-09-05T16:40:06.735Z,95.70
2018-09-05T16:42:34.552Z,96.00
2018-09-05T16:45:02.453Z,96.70
2018-09-05T16:47:30.399Z,95.80
2018-09-05T16:49:58.299Z,96.00
2018-09-05T16:52:30.225Z,95.80
2018-09-05T16:54:58.578Z,96.10
2018-09-05T16:57:26.634Z,96.00
2018-09-05T16:59:55.230Z,96.50
2018-09-05T17:02:23.619Z,96.70
2018-09-05T17:04:51.524Z,96.80
2018-09-05T17:07:19.598Z,97.00
2018-09-05T17:09:47.706Z,97.00
2018-09-05T17:12:15.913Z,96.90
2018-09-05T17:14:43.668Z,97.10
2018-09-05T17:17:11.697Z,97.30
2018-09-05T17:19:39.980Z,97.40
2018-09-05T17:22:07.940Z,97.10
2018-09-05T17:24:35.907Z,97.60
2018-09-05T17:27:03.865Z,98.60
2018-09-05T17:29:31.937Z,98.10
2018-09-05T17:32:00.191Z,98.00
2018-09-05T17:34:28.295Z,98.60
2018-09-05T17:36:56.182Z,99.80
2018-09-05T17:39:24.074Z,99.90
2018-09-05T17:41:52.325Z,99.90
2018-09-05T17:44:20.305Z,99.90
2018-09-05T17:46:48.369Z,99.90
2018-09-05T17:49:16.402Z,99.90
2018-09-05T17:51:44.402Z,99.90
2018-09-05T17:54:12.325Z,99.90
2018-09-05T17:56:40.187Z,99.90
2018-09-05T17:59:08.394Z,99.90
2018-09-05T18:01:36.629Z,99.90
2018-09-05T18:04:04.545Z,99.90
2018-09-05T18:06:32.535Z,99.90
2018-09-05T18:09:00.469Z,99.90
2018-09-05T18:11:28.327Z,99.90
2018-09-05T18:13:56.786Z,99.90
2018-09-05T18:16:24.754Z,99.90
2018-09-05T18:18:52.722Z,99.90
2018-09-05T18:21:20.826Z,99.90
2018-09-05T18:23:48.864Z,99.90
2018-09-05T18:26:17.167Z,99.90
2018-09-05T18:28:45.138Z,99.90
2018-09-05T18:31:13.194Z,99.90
2018-09-05T18:33:41.295Z,99.90
2018-09-05T18:36:09.305Z,99.90
2018-09-05T18:38:37.445Z,99.90
2018-09-05T18:41:06.524Z,99.90
2018-09-05T18:43:34.495Z,99.90
2018-09-05T18:46:04.888Z,99.90
2018-09-05T18:48:32.873Z,99.90
2018-09-05T18:51:00.874Z,99.90
2018-09-05T18:53:28.755Z,99.90
2018-09-05T18:55:56.967Z,99.90
2018-09-05T18:58:24.961Z,99.90
2018-09-05T19:00:53.444Z,99.90
2018-09-05T19:03:21.555Z,99.90
2018-09-05T19:05:49.534Z,99.90
2018-09-05T19:08:17.502Z,99.90
2018-09-05T19:10:45.744Z,99.90
2018-09-05T19:13:13.899Z,99.90
2018-09-05T19:15:42.119Z,99.90
2018-09-05T19:18:10.248Z,99.90
2018-09-05T19:20:38.693Z,99.90
2018-09-05T19:23:06.963Z,99.90
2018-09-05T19:25:34.966Z,99.90
2018-09-05T19:28:03.264Z,99.90
2018-09-05T19:30:31.267Z,99.90
2018-09-05T19:32:59.138Z,99.90
2018-09-05T19:35:27.239Z,99.90
2018-09-05T19:37:55.601Z,99.90
2018-09-05T19:40:23.540Z,99.90
2018-09-05T19:42:51.926Z,99.90
2018-09-05T19:45:19.885Z,99.90
2018-09-05T19:47:47.751Z,99.90
2018-09-05T19:52:44.325Z,99.90
2018-09-05T19:55:12.329Z,99.90
2018-09-05T19:57:40.267Z,99.90
2018-09-05T20:00:08.589Z,99.90
2018-09-05T20:02:36.750Z,99.90
2018-09-05T20:05:04.807Z,99.90
2018-09-05T20:07:32.725Z,99.90
2018-09-05T20:10:00.801Z,99.90
2018-09-05T20:12:28.877Z,99.90
2018-09-05T20:14:56.801Z,99.90
2018-09-05T20:17:24.817Z,99.90
2018-09-05T20:19:52.729Z,99.90
2018-09-05T20:22:20.603Z,99.90
2018-09-05T20:24:49.548Z,99.90
2018-09-05T20:27:17.830Z,99.90
2018-09-05T20:29:45.919Z,99.90
2018-09-05T20:32:13.886Z,99.90
2018-09-05T20:34:41.831Z,99.90
2018-09-05T20:37:09.760Z,99.90
2018-09-05T20:39:37.612Z,99.90
2018-09-05T20:42:05.807Z,99.90
2018-09-05T20:44:33.805Z,99.90
2018-09-05T20:47:01.950Z,99.90
2018-09-05T20:49:29.813Z,99.90
2018-09-05T20:51:57.784Z,99.90
2018-09-05T20:54:25.612Z,99.90
2018-09-05T20:56:53.540Z,99.90
2018-09-05T20:59:21.339Z,99.90
2018-09-05T21:01:49.341Z,99.90
2018-09-05T21:04:17.465Z,99.90
2018-09-05T21:09:13.208Z,99.90
2018-09-05T21:11:41.238Z,99.90
2018-09-05T21:14:09.049Z,99.90
2018-09-05T21:16:37.011Z,99.90
2018-09-05T21:19:05.053Z,99.90
2018-09-05T21:21:32.887Z,99.90
2018-09-05T21:24:00.913Z,99.90
2018-09-05T21:26:28.780Z,99.90
2018-09-05T21:28:56.537Z,99.90
2018-09-05T21:31:24.396Z,99.90
2018-09-05T21:33:52.508Z,99.90
2018-09-05T21:36:20.562Z,99.90
2018-09-05T21:38:48.382Z,99.90
2018-09-05T21:41:16.344Z,99.90
2018-09-05T21:43:44.186Z,99.90
2018-09-05T21:46:12.004Z,99.90
2018-09-05T21:48:39.829Z,99.90
2018-09-05T21:51:07.644Z,99.90
2018-09-05T21:53:35.446Z,99.90
2018-09-05T21:56:03.262Z,99.90
2018-09-05T21:58:31.143Z,99.90
2018-09-05T22:00:59.160Z,99.90
2018-09-05T22:03:27.030Z,99.90
2018-09-05T22:05:55.071Z,99.90
2018-09-05T22:08:22.976Z,99.90
2018-09-05T22:10:50.891Z,99.90
2018-09-05T22:13:18.836Z,99.90
2018-09-05T22:15:47.574Z,99.90
2018-09-05T22:18:16.351Z,99.90
2018-09-05T22:20:44.124Z,99.90
2018-09-05T22:23:12.079Z,99.90
2018-09-05T22:25:39.883Z,99.90
2018-09-05T22:28:07.678Z,99.90
2018-09-05T22:30:35.733Z,99.90
2018-09-05T22:33:04.109Z,99.90
2018-09-05T22:35:32.002Z,99.90
2018-09-05T22:37:59.969Z,99.90
2018-09-05T22:40:30.220Z,99.90
2018-09-05T22:43:03.743Z,99.90
2018-09-05T22:45:37.122Z,99.90
2018-09-05T22:48:19.137Z,99.90
2018-09-05T22:50:58.097Z,99.90
2018-09-05T22:53:37.015Z,99.90
2018-09-05T22:56:18.563Z,99.90
2018-09-05T22:58:52.025Z,99.90
2018-09-05T23:01:22.704Z,99.90
2018-09-05T23:04:00.576Z,99.90
2018-09-05T23:06:44.143Z,99.90
2018-09-05T23:09:11.960Z,99.90
2018-09-05T23:11:45.443Z,99.90
2018-09-05T23:14:18.947Z,99.90
2018-09-05T23:16:52.409Z,99.90
2018-09-05T23:19:27.993Z,99.90
2018-09-05T23:21:55.784Z,99.90
2018-09-05T23:24:23.766Z,99.90
2018-09-05T23:26:51.704Z,99.90
2018-09-05T23:29:19.503Z,99.90
2018-09-05T23:31:47.524Z,99.90
2018-09-05T23:34:15.463Z,99.90
2018-09-05T23:36:43.375Z,99.90
2018-09-05T23:39:11.336Z,99.90
2018-09-05T23:41:39.071Z,99.90
2018-09-05T23:44:06.905Z,99.90
2018-09-05T23:46:34.674Z,99.90
2018-09-05T23:49:02.652Z,99.90
2018-09-05T23:51:30.408Z,99.90
2018-09-05T23:53:58.115Z,99.90
2018-09-05T23:56:26.051Z,99.90
2018-09-05T23:58:53.993Z,99.90
